sensor_id;sensor_type;location;lat;lon;timestamp;temperature;humidity
64652;HTU21D;51062;45.120;37.660;2023-02-22T00:00:29;5.98;79.56
64652;HTU21D;51062;45.120;37.660;2023-02-22T00:03:36;5.95;79.59
64652;HTU21D;51062;45.120;37.660;2023-02-22T00:06:04;5.92;79.55
64652;HTU21D;51062;45.120;37.660;2023-02-22T00:08:34;5.89;79.57
64652;HTU21D;51062;45.120;37.660;2023-02-22T00:11:02;5.86;79.62
64652;HTU21D;51062;45.120;37.660;2023-02-22T00:13:31;5.83;79.59
64652;HTU21D;51062;45.120;37.660;2023-02-22T00:15:58;5.81;79.64
64652;HTU21D;51062;45.120;37.660;2023-02-22T00:18:26;5.82;79.67
64652;HTU21D;51062;45.120;37.660;2023-02-22T00:20:54;5.79;79.69
64652;HTU21D;51062;45.120;37.660;2023-02-22T00:23:21;5.80;79.67
64652;HTU21D;51062;45.120;37.660;2023-02-22T00:25:49;5.80;79.69
64652;HTU21D;51062;45.120;37.660;2023-02-22T00:28:19;5.80;79.69
64652;HTU21D;51062;45.120;37.660;2023-02-22T00:30:46;5.79;79.66
64652;HTU21D;51062;45.120;37.660;2023-02-22T00:33:14;5.79;79.63
64652;HTU21D;51062;45.120;37.660;2023-02-22T00:35:40;5.78;79.61
64652;HTU21D;51062;45.120;37.660;2023-02-22T00:38:12;5.78;79.58
64652;HTU21D;51062;45.120;37.660;2023-02-22T00:40:38;5.77;79.62
64652;HTU21D;51062;45.120;37.660;2023-02-22T00:43:05;5.76;79.62
64652;HTU21D;51062;45.120;37.660;2023-02-22T00:45:33;5.75;79.63
64652;HTU21D;51062;45.120;37.660;2023-02-22T00:48:01;5.75;79.60
64652;HTU21D;51062;45.120;37.660;2023-02-22T00:50:30;5.74;79.60
64652;HTU21D;51062;45.120;37.660;2023-02-22T00:52:57;5.72;79.61
64652;HTU21D;51062;45.120;37.660;2023-02-22T00:55:30;5.72;79.66
64652;HTU21D;51062;45.120;37.660;2023-02-22T00:57:57;5.72;79.59
64652;HTU21D;51062;45.120;37.660;2023-02-22T01:02:50;5.72;0.00
64652;HTU21D;51062;45.120;37.660;2023-02-22T01:05:19;5.74;79.56
64652;HTU21D;51062;45.120;37.660;2023-02-22T01:07:46;5.69;79.47
64652;HTU21D;51062;45.120;37.660;2023-02-22T01:10:17;5.70;79.50
64652;HTU21D;51062;45.120;37.660;2023-02-22T01:12:47;0.00;79.54
64652;HTU21D;51062;45.120;37.660;2023-02-22T01:15:17;5.65;79.57
64652;HTU21D;51062;45.120;37.660;2023-02-22T01:17:47;5.66;79.57
64652;HTU21D;51062;45.120;37.660;2023-02-22T01:20:13;5.66;79.62
64652;HTU21D;51062;45.120;37.660;2023-02-22T01:22:45;5.66;79.57
64652;HTU21D;51062;45.120;37.660;2023-02-22T01:25:16;5.66;79.59
64652;HTU21D;51062;45.120;37.660;2023-02-22T01:27:43;5.67;79.56
64652;HTU21D;51062;45.120;37.660;2023-02-22T01:30:11;5.66;79.59
64652;HTU21D;51062;45.120;37.660;2023-02-22T01:32:39;5.68;79.73
64652;HTU21D;51062;45.120;37.660;2023-02-22T01:35:09;5.72;79.84
64652;HTU21D;51062;45.120;37.660;2023-02-22T01:37:37;5.81;79.86
64652;HTU21D;51062;45.120;37.660;2023-02-22T01:40:05;5.89;79.91
64652;HTU21D;51062;45.120;37.660;2023-02-22T01:42:33;5.97;79.88
64652;HTU21D;51062;45.120;37.660;2023-02-22T01:48:11;6.11;79.59
64652;HTU21D;51062;45.120;37.660;2023-02-22T01:50:46;6.15;79.36
64652;HTU21D;51062;45.120;37.660;2023-02-22T01:53:16;6.15;79.21
64652;HTU21D;51062;45.120;37.660;2023-02-22T01:55:43;6.10;79.09
64652;HTU21D;51062;45.120;37.660;2023-02-22T01:58:12;6.02;79.07
64652;HTU21D;51062;45.120;37.660;2023-02-22T02:00:41;5.98;79.08
64652;HTU21D;51062;45.120;37.660;2023-02-22T02:03:29;5.91;79.20
64652;HTU21D;51062;45.120;37.660;2023-02-22T02:06:01;5.85;79.25
64652;HTU21D;51062;45.120;37.660;2023-02-22T02:11:03;5.79;79.33
64652;HTU21D;51062;45.120;37.660;2023-02-22T02:13:30;5.76;79.27
64652;HTU21D;51062;45.120;37.660;2023-02-22T02:15:56;5.71;79.27
64652;HTU21D;51062;45.120;37.660;2023-02-22T02:18:23;5.68;79.27
64652;HTU21D;51062;45.120;37.660;2023-02-22T02:32:21;5.49;79.40
64652;HTU21D;51062;45.120;37.660;2023-02-22T02:40:46;5.41;79.38
64652;HTU21D;51062;45.120;37.660;2023-02-22T02:46:06;5.36;79.37
64652;HTU21D;51062;45.120;37.660;2023-02-22T02:48:35;5.36;79.42
64652;HTU21D;51062;45.120;37.660;2023-02-22T02:51:04;5.36;79.43
64652;HTU21D;51062;45.120;37.660;2023-02-22T02:53:36;5.35;79.37
64652;HTU21D;51062;45.120;37.660;2023-02-22T02:56:03;5.35;79.42
64652;HTU21D;51062;45.120;37.660;2023-02-22T02:58:30;5.37;79.45
64652;HTU21D;51062;45.120;37.660;2023-02-22T03:01:00;5.39;79.37
64652;HTU21D;51062;45.120;37.660;2023-02-22T03:06:22;5.38;79.22
64652;HTU21D;51062;45.120;37.660;2023-02-22T03:08:56;5.37;79.23
64652;HTU21D;51062;45.120;37.660;2023-02-22T03:11:29;5.34;79.27
64652;HTU21D;51062;45.120;37.660;2023-02-22T03:19:44;5.28;79.32
64652;HTU21D;51062;45.120;37.660;2023-02-22T03:22:21;5.26;79.34
64652;HTU21D;51062;45.120;37.660;2023-02-22T03:24:55;5.26;79.35
64652;HTU21D;51062;45.120;37.660;2023-02-22T03:30:21;5.25;79.28
64652;HTU21D;51062;45.120;37.660;2023-02-22T03:32:52;5.23;79.24
64652;HTU21D;51062;45.120;37.660;2023-02-22T03:35:22;5.21;79.27
64652;HTU21D;51062;45.120;37.660;2023-02-22T03:37:53;5.20;79.27
64652;HTU21D;51062;45.120;37.660;2023-02-22T03:40:27;5.18;79.31
64652;HTU21D;51062;45.120;37.660;2023-02-22T03:43:03;5.18;79.25
64652;HTU21D;51062;45.120;37.660;2023-02-22T03:45:33;5.15;79.22
64652;HTU21D;51062;45.120;37.660;2023-02-22T03:50:36;5.09;79.22
64652;HTU21D;51062;45.120;37.660;2023-02-22T03:53:04;5.07;79.27
64652;HTU21D;51062;45.120;37.660;2023-02-22T03:55:35;5.03;79.34
64652;HTU21D;51062;45.120;37.660;2023-02-22T03:58:08;5.03;79.30
64652;HTU21D;51062;45.120;37.660;2023-02-22T04:00:36;5.01;79.31
64652;HTU21D;51062;45.120;37.660;2023-02-22T04:03:03;5.00;79.32
64652;HTU21D;51062;45.120;37.660;2023-02-22T04:05:29;4.98;79.32
64652;HTU21D;51062;45.120;37.660;2023-02-22T04:07:56;5.00;79.33
64652;HTU21D;51062;45.120;37.660;2023-02-22T04:10:23;5.00;79.37
64652;HTU21D;51062;45.120;37.660;2023-02-22T04:12:50;5.00;79.37
64652;HTU21D;51062;45.120;37.660;2023-02-22T04:15:21;5.01;79.37
64652;HTU21D;51062;45.120;37.660;2023-02-22T04:17:49;5.01;79.31
64652;HTU21D;51062;45.120;37.660;2023-02-22T04:20:17;5.00;79.30
64652;HTU21D;51062;45.120;37.660;2023-02-22T04:22:54;4.97;79.35
64652;HTU21D;51062;45.120;37.660;2023-02-22T04:25:22;4.96;79.33
64652;HTU21D;51062;45.120;37.660;2023-02-22T04:27:48;4.97;79.31
64652;HTU21D;51062;45.120;37.660;2023-02-22T04:30:18;4.95;79.33
64652;HTU21D;51062;45.120;37.660;2023-02-22T04:32:45;4.95;79.33
64652;HTU21D;51062;45.120;37.660;2023-02-22T04:35:13;4.96;79.35
64652;HTU21D;51062;45.120;37.660;2023-02-22T04:37:40;4.98;79.31
64652;HTU21D;51062;45.120;37.660;2023-02-22T04:40:07;4.98;79.29
64652;HTU21D;51062;45.120;37.660;2023-02-22T04:42:35;5.01;79.25
64652;HTU21D;51062;45.120;37.660;2023-02-22T04:45:03;5.02;79.21
64652;HTU21D;51062;45.120;37.660;2023-02-22T04:47:29;5.04;79.22
64652;HTU21D;51062;45.120;37.660;2023-02-22T04:49:57;5.06;79.24
64652;HTU21D;51062;45.120;37.660;2023-02-22T04:52:25;5.10;79.35
64652;HTU21D;51062;45.120;37.660;2023-02-22T04:54:53;5.30;79.74
64652;HTU21D;51062;45.120;37.660;2023-02-22T04:57:19;5.71;79.57
64652;HTU21D;51062;45.120;37.660;2023-02-22T04:59:46;5.90;78.98
64652;HTU21D;51062;45.120;37.660;2023-02-22T05:02:12;5.95;78.92
64652;HTU21D;51062;45.120;37.660;2023-02-22T05:04:38;6.25;79.23
64652;HTU21D;51062;45.120;37.660;2023-02-22T05:07:04;6.71;78.66
64652;HTU21D;51062;45.120;37.660;2023-02-22T05:09:30;7.26;77.53
64652;HTU21D;51062;45.120;37.660;2023-02-22T05:11:56;7.84;77.42
64652;HTU21D;51062;45.120;37.660;2023-02-22T05:14:22;8.50;77.35
64652;HTU21D;51062;45.120;37.660;2023-02-22T05:16:54;9.16;76.98
64652;HTU21D;51062;45.120;37.660;2023-02-22T05:19:20;9.77;76.60
64652;HTU21D;51062;45.120;37.660;2023-02-22T05:21:46;10.20;76.15
64652;HTU21D;51062;45.120;37.660;2023-02-22T05:24:12;10.36;75.41
64652;HTU21D;51062;45.120;37.660;2023-02-22T05:26:38;9.88;74.86
64652;HTU21D;51062;45.120;37.660;2023-02-22T05:29:05;9.14;75.06
64652;HTU21D;51062;45.120;37.660;2023-02-22T05:31:31;8.68;77.02
64652;HTU21D;51062;45.120;37.660;2023-02-22T05:33:57;9.22;77.47
64652;HTU21D;51062;45.120;37.660;2023-02-22T05:36:23;10.03;76.78
64652;HTU21D;51062;45.120;37.660;2023-02-22T05:38:50;10.78;76.16
64652;HTU21D;51062;45.120;37.660;2023-02-22T05:41:17;11.49;75.29
64652;HTU21D;51062;45.120;37.660;2023-02-22T05:43:43;11.93;74.76
64652;HTU21D;51062;45.120;37.660;2023-02-22T05:46:09;12.35;74.51
64652;HTU21D;51062;45.120;37.660;2023-02-22T05:48:35;12.71;74.15
64652;HTU21D;51062;45.120;37.660;2023-02-22T05:51:02;13.04;73.96
64652;HTU21D;51062;45.120;37.660;2023-02-22T05:53:29;13.39;73.60
64652;HTU21D;51062;45.120;37.660;2023-02-22T05:55:55;13.73;73.22
64652;HTU21D;51062;45.120;37.660;2023-02-22T05:58:21;13.97;72.87
64652;HTU21D;51062;45.120;37.660;2023-02-22T06:00:47;14.17;72.61
64652;HTU21D;51062;45.120;37.660;2023-02-22T06:03:13;14.36;72.52
64652;HTU21D;51062;45.120;37.660;2023-02-22T06:05:40;14.54;72.38
64652;HTU21D;51062;45.120;37.660;2023-02-22T06:08:07;14.72;72.13
64652;HTU21D;51062;45.120;37.660;2023-02-22T06:10:33;14.94;71.93
64652;HTU21D;51062;45.120;37.660;2023-02-22T06:13:01;15.17;71.55
64652;HTU21D;51062;45.120;37.660;2023-02-22T06:15:29;15.25;71.26
64652;HTU21D;51062;45.120;37.660;2023-02-22T06:17:56;15.34;71.00
64652;HTU21D;51062;45.120;37.660;2023-02-22T06:20:25;15.39;71.03
64652;HTU21D;51062;45.120;37.660;2023-02-22T06:22:53;15.62;70.68
64652;HTU21D;51062;45.120;37.660;2023-02-22T06:25:22;15.71;70.19
64652;HTU21D;51062;45.120;37.660;2023-02-22T06:27:52;15.63;69.95
64652;HTU21D;51062;45.120;37.660;2023-02-22T06:30:20;15.43;69.91
64652;HTU21D;51062;45.120;37.660;2023-02-22T06:32:47;14.74;70.42
64652;HTU21D;51062;45.120;37.660;2023-02-22T06:35:14;14.42;71.78
64652;HTU21D;51062;45.120;37.660;2023-02-22T06:37:39;14.53;71.35
64652;HTU21D;51062;45.120;37.660;2023-02-22T06:40:06;14.78;71.38
64652;HTU21D;51062;45.120;37.660;2023-02-22T06:42:32;14.84;70.45
64652;HTU21D;51062;45.120;37.660;2023-02-22T06:44:58;14.21;70.43
64652;HTU21D;51062;45.120;37.660;2023-02-22T06:47:24;13.16;70.85
64652;HTU21D;51062;45.120;37.660;2023-02-22T06:49:55;12.10;71.60
64652;HTU21D;51062;45.120;37.660;2023-02-22T06:52:21;11.18;72.49
64652;HTU21D;51062;45.120;37.660;2023-02-22T06:54:48;10.39;73.35
64652;HTU21D;51062;45.120;37.660;2023-02-22T06:57:15;9.78;74.00
64652;HTU21D;51062;45.120;37.660;2023-02-22T06:59:41;9.23;74.42
64652;HTU21D;51062;45.120;37.660;2023-02-22T07:02:12;8.85;74.87
64652;HTU21D;51062;45.120;37.660;2023-02-22T07:04:38;8.53;75.12
64652;HTU21D;51062;45.120;37.660;2023-02-22T07:07:05;8.32;75.23
64652;HTU21D;51062;45.120;37.660;2023-02-22T07:09:31;8.11;75.20
64652;HTU21D;51062;45.120;37.660;2023-02-22T07:11:57;7.96;75.38
64652;HTU21D;51062;45.120;37.660;2023-02-22T07:14:23;7.89;75.50
64652;HTU21D;51062;45.120;37.660;2023-02-22T07:16:49;7.84;75.48
64652;HTU21D;51062;45.120;37.660;2023-02-22T07:19:15;7.79;75.44
64652;HTU21D;51062;45.120;37.660;2023-02-22T07:21:41;7.74;75.43
64652;HTU21D;51062;45.120;37.660;2023-02-22T07:24:07;7.73;75.50
64652;HTU21D;51062;45.120;37.660;2023-02-22T07:26:42;7.74;75.45
64652;HTU21D;51062;45.120;37.660;2023-02-22T07:29:08;7.76;75.28
64652;HTU21D;51062;45.120;37.660;2023-02-22T07:31:37;7.75;75.29
64652;HTU21D;51062;45.120;37.660;2023-02-22T07:34:03;7.76;75.20
64652;HTU21D;51062;45.120;37.660;2023-02-22T07:36:29;7.75;75.11
64652;HTU21D;51062;45.120;37.660;2023-02-22T07:38:55;7.77;75.15
64652;HTU21D;51062;45.120;37.660;2023-02-22T07:41:21;7.82;75.12
64652;HTU21D;51062;45.120;37.660;2023-02-22T07:43:47;7.83;75.03
64652;HTU21D;51062;45.120;37.660;2023-02-22T07:46:14;7.83;74.92
64652;HTU21D;51062;45.120;37.660;2023-02-22T07:48:40;7.82;74.93
64652;HTU21D;51062;45.120;37.660;2023-02-22T07:51:06;7.79;74.86
64652;HTU21D;51062;45.120;37.660;2023-02-22T07:53:34;7.76;74.89
64652;HTU21D;51062;45.120;37.660;2023-02-22T07:56:02;7.76;74.89
64652;HTU21D;51062;45.120;37.660;2023-02-22T07:58:30;7.82;74.99
64652;HTU21D;51062;45.120;37.660;2023-02-22T08:00:58;7.89;74.99
64652;HTU21D;51062;45.120;37.660;2023-02-22T08:03:29;7.97;74.96
64652;HTU21D;51062;45.120;37.660;2023-02-22T08:05:56;8.04;74.80
64652;HTU21D;51062;45.120;37.660;2023-02-22T08:08:25;8.08;74.67
64652;HTU21D;51062;45.120;37.660;2023-02-22T08:10:51;8.13;74.58
64652;HTU21D;51062;45.120;37.660;2023-02-22T08:13:18;8.15;74.42
64652;HTU21D;51062;45.120;37.660;2023-02-22T08:15:47;8.11;74.31
64652;HTU21D;51062;45.120;37.660;2023-02-22T08:18:15;8.06;74.31
64652;HTU21D;51062;45.120;37.660;2023-02-22T08:20:43;7.99;74.23
64652;HTU21D;51062;45.120;37.660;2023-02-22T08:23:12;7.94;74.43
64652;HTU21D;51062;45.120;37.660;2023-02-22T08:25:38;8.05;74.72
64652;HTU21D;51062;45.120;37.660;2023-02-22T08:28:07;8.24;74.40
64652;HTU21D;51062;45.120;37.660;2023-02-22T08:30:35;8.32;74.14
64652;HTU21D;51062;45.120;37.660;2023-02-22T08:33:02;8.37;74.24
64652;HTU21D;51062;45.120;37.660;2023-02-22T08:35:29;8.50;74.26
64652;HTU21D;51062;45.120;37.660;2023-02-22T08:37:58;8.59;74.01
64652;HTU21D;51062;45.120;37.660;2023-02-22T08:40:26;8.60;73.86
64652;HTU21D;51062;45.120;37.660;2023-02-22T08:42:53;8.62;73.92
64652;HTU21D;51062;45.120;37.660;2023-02-22T08:45:19;8.62;73.76
64652;HTU21D;51062;45.120;37.660;2023-02-22T08:47:46;8.57;73.70
64652;HTU21D;51062;45.120;37.660;2023-02-22T08:50:21;8.43;73.67
64652;HTU21D;51062;45.120;37.660;2023-02-22T08:52:55;8.30;73.77
64652;HTU21D;51062;45.120;37.660;2023-02-22T08:55:28;8.17;73.86
64652;HTU21D;51062;45.120;37.660;2023-02-22T08:57:57;8.09;74.05
64652;HTU21D;51062;45.120;37.660;2023-02-22T09:00:24;8.12;74.15
64652;HTU21D;51062;45.120;37.660;2023-02-22T09:02:51;8.20;74.24
64652;HTU21D;51062;45.120;37.660;2023-02-22T09:05:17;8.30;74.16
64652;HTU21D;51062;45.120;37.660;2023-02-22T09:07:43;8.29;73.81
64652;HTU21D;51062;45.120;37.660;2023-02-22T09:10:16;8.23;73.81
64652;HTU21D;51062;45.120;37.660;2023-02-22T09:12:43;8.18;73.74
64652;HTU21D;51062;45.120;37.660;2023-02-22T09:15:10;8.09;73.67
64652;HTU21D;51062;45.120;37.660;2023-02-22T09:17:36;8.00;73.64
64652;HTU21D;51062;45.120;37.660;2023-02-22T09:20:05;7.92;73.65
64652;HTU21D;51062;45.120;37.660;2023-02-22T09:22:31;7.86;73.73
64652;HTU21D;51062;45.120;37.660;2023-02-22T09:24:58;7.78;73.77
64652;HTU21D;51062;45.120;37.660;2023-02-22T09:27:24;7.77;73.89
64652;HTU21D;51062;45.120;37.660;2023-02-22T09:29:53;7.77;73.83
64652;HTU21D;51062;45.120;37.660;2023-02-22T09:32:23;7.79;73.81
64652;HTU21D;51062;45.120;37.660;2023-02-22T09:34:49;7.85;73.84
64652;HTU21D;51062;45.120;37.660;2023-02-22T09:37:16;7.89;73.69
64652;HTU21D;51062;45.120;37.660;2023-02-22T09:39:43;7.88;73.58
64652;HTU21D;51062;45.120;37.660;2023-02-22T09:42:29;7.88;73.60
64652;HTU21D;51062;45.120;37.660;2023-02-22T09:45:01;7.90;73.57
64652;HTU21D;51062;45.120;37.660;2023-02-22T09:47:39;7.97;73.62
64652;HTU21D;51062;45.120;37.660;2023-02-22T09:50:10;8.08;73.63
64652;HTU21D;51062;45.120;37.660;2023-02-22T09:52:53;8.16;73.32
64652;HTU21D;51062;45.120;37.660;2023-02-22T09:55:38;8.13;73.18
64652;HTU21D;51062;45.120;37.660;2023-02-22T09:58:26;8.07;73.07
64652;HTU21D;51062;45.120;37.660;2023-02-22T10:00:57;7.93;72.73
64652;HTU21D;51062;45.120;37.660;2023-02-22T10:03:41;7.83;73.03
64652;HTU21D;51062;45.120;37.660;2023-02-22T10:06:13;7.77;73.05
64652;HTU21D;51062;45.120;37.660;2023-02-22T10:08:42;7.72;73.09
64652;HTU21D;51062;45.120;37.660;2023-02-22T10:11:17;7.69;72.96
64652;HTU21D;51062;45.120;37.660;2023-02-22T10:19:55;7.85;73.25
64652;HTU21D;51062;45.120;37.660;2023-02-22T10:25:09;8.08;72.63
64652;HTU21D;51062;45.120;37.660;2023-02-22T10:27:43;8.16;72.50
64652;HTU21D;51062;45.120;37.660;2023-02-22T10:30:40;8.22;72.36
64652;HTU21D;51062;45.120;37.660;2023-02-22T10:33:14;8.26;72.28
64652;HTU21D;51062;45.120;37.660;2023-02-22T10:35:43;8.29;72.09
64652;HTU21D;51062;45.120;37.660;2023-02-22T10:38:11;8.31;72.18
64652;HTU21D;51062;45.120;37.660;2023-02-22T10:40:43;8.35;72.12
64652;HTU21D;51062;45.120;37.660;2023-02-22T10:43:10;8.33;72.01
64652;HTU21D;51062;45.120;37.660;2023-02-22T10:45:36;8.34;72.13
64652;HTU21D;51062;45.120;37.660;2023-02-22T10:48:12;8.41;72.00
64652;HTU21D;51062;45.120;37.660;2023-02-22T10:50:41;8.42;71.89
64652;HTU21D;51062;45.120;37.660;2023-02-22T10:53:09;8.48;71.77
64652;HTU21D;51062;45.120;37.660;2023-02-22T10:58:22;8.55;71.68
64652;HTU21D;51062;45.120;37.660;2023-02-22T11:00:49;8.62;71.44
64652;HTU21D;51062;45.120;37.660;2023-02-22T11:03:18;8.62;71.25
64652;HTU21D;51062;45.120;37.660;2023-02-22T11:05:44;8.65;71.24
64652;HTU21D;51062;45.120;37.660;2023-02-22T11:08:23;8.57;70.97
64652;HTU21D;51062;45.120;37.660;2023-02-22T11:10:55;8.47;70.95
64652;HTU21D;51062;45.120;37.660;2023-02-22T11:13:28;8.37;71.21
64652;HTU21D;51062;45.120;37.660;2023-02-22T11:15:58;8.41;71.51
64652;HTU21D;51062;45.120;37.660;2023-02-22T11:18:27;8.39;71.28
64652;HTU21D;51062;45.120;37.660;2023-02-22T11:21:05;8.36;71.20
64652;HTU21D;51062;45.120;37.660;2023-02-22T11:23:33;8.32;71.25
64652;HTU21D;51062;45.120;37.660;2023-02-22T11:26:18;8.34;71.39
64652;HTU21D;51062;45.120;37.660;2023-02-22T11:28:49;8.34;71.19
64652;HTU21D;51062;45.120;37.660;2023-02-22T11:31:26;8.37;71.23
64652;HTU21D;51062;45.120;37.660;2023-02-22T11:33:58;8.42;71.23
64652;HTU21D;51062;45.120;37.660;2023-02-22T11:36:43;8.45;71.00
64652;HTU21D;51062;45.120;37.660;2023-02-22T11:39:26;8.42;71.05
64652;HTU21D;51062;45.120;37.660;2023-02-22T11:41:54;8.41;71.10
64652;HTU21D;51062;45.120;37.660;2023-02-22T11:44:25;8.36;70.89
64652;HTU21D;51062;45.120;37.660;2023-02-22T11:46:53;8.30;70.97
64652;HTU21D;51062;45.120;37.660;2023-02-22T11:49:22;8.17;70.76
64652;HTU21D;51062;45.120;37.660;2023-02-22T11:51:59;8.03;70.78
64652;HTU21D;51062;45.120;37.660;2023-02-22T11:59:57;7.40;71.02
64652;HTU21D;51062;45.120;37.660;2023-02-22T12:08:20;7.20;71.20
64652;HTU21D;51062;45.120;37.660;2023-02-22T12:16:06;7.03;71.28
64652;HTU21D;51062;45.120;37.660;2023-02-22T12:21:20;7.18;71.46
64652;HTU21D;51062;45.120;37.660;2023-02-22T12:24:14;7.28;71.32
64652;HTU21D;51062;45.120;37.660;2023-02-22T12:26:47;7.39;71.19
64652;HTU21D;51062;45.120;37.660;2023-02-22T12:29:33;7.47;71.06
64652;HTU21D;51062;45.120;37.660;2023-02-22T12:32:16;7.49;70.89
64652;HTU21D;51062;45.120;37.660;2023-02-22T12:34:47;7.55;70.90
64652;HTU21D;51062;45.120;37.660;2023-02-22T12:37:23;7.58;70.68
64652;HTU21D;51062;45.120;37.660;2023-02-22T12:40:19;7.58;70.64
64652;HTU21D;51062;45.120;37.660;2023-02-22T12:45:41;7.38;70.72
64652;HTU21D;51062;45.120;37.660;2023-02-22T12:50:55;7.40;70.83
64652;HTU21D;51062;45.120;37.660;2023-02-22T12:53:24;7.35;70.58
64652;HTU21D;51062;45.120;37.660;2023-02-22T12:55:57;7.26;70.58
64652;HTU21D;51062;45.120;37.660;2023-02-22T13:01:20;7.17;70.74
64652;HTU21D;51062;45.120;37.660;2023-02-22T13:03:48;7.17;70.69
64652;HTU21D;51062;45.120;37.660;2023-02-22T13:06:36;7.14;70.61
64652;HTU21D;51062;45.120;37.660;2023-02-22T13:12:17;7.11;70.62
64652;HTU21D;51062;45.120;37.660;2023-02-22T13:17:46;7.08;70.67
64652;HTU21D;51062;45.120;37.660;2023-02-22T13:23:16;7.11;70.64
64652;HTU21D;51062;45.120;37.660;2023-02-22T13:26:00;7.08;70.60
64652;HTU21D;51062;45.120;37.660;2023-02-22T13:48:17;6.31;70.89
64652;HTU21D;51062;45.120;37.660;2023-02-22T13:53:57;6.15;70.93
64652;HTU21D;51062;45.120;37.660;2023-02-22T13:56:25;6.11;70.94
64652;HTU21D;51062;45.120;37.660;2023-02-22T13:58:57;6.05;70.97
64652;HTU21D;51062;45.120;37.660;2023-02-22T14:01:40;6.01;71.06
64652;HTU21D;51062;45.120;37.660;2023-02-22T14:06:44;5.97;70.99
64652;HTU21D;51062;45.120;37.660;2023-02-22T14:09:16;5.94;71.00
64652;HTU21D;51062;45.120;37.660;2023-02-22T14:11:47;5.90;71.02
64652;HTU21D;51062;45.120;37.660;2023-02-22T14:14:19;5.85;70.97
64652;HTU21D;51062;45.120;37.660;2023-02-22T14:17:15;5.78;71.03
64652;HTU21D;51062;45.120;37.660;2023-02-22T14:19:59;5.70;71.04
64652;HTU21D;51062;45.120;37.660;2023-02-22T14:22:29;5.62;71.08
64652;HTU21D;51062;45.120;37.660;2023-02-22T14:24:55;5.55;71.15
64652;HTU21D;51062;45.120;37.660;2023-02-22T14:27:22;5.49;71.17
64652;HTU21D;51062;45.120;37.660;2023-02-22T14:29:53;5.42;71.20
64652;HTU21D;51062;45.120;37.660;2023-02-22T14:32:29;5.37;71.23
64652;HTU21D;51062;45.120;37.660;2023-02-22T14:35:04;5.27;71.27
64652;HTU21D;51062;45.120;37.660;2023-02-22T14:37:36;5.20;71.35
64652;HTU21D;51062;45.120;37.660;2023-02-22T14:40:06;5.12;71.41
64652;HTU21D;51062;45.120;37.660;2023-02-22T14:42:47;5.04;71.49
64652;HTU21D;51062;45.120;37.660;2023-02-22T14:45:35;5.00;71.61
64652;HTU21D;51062;45.120;37.660;2023-02-22T14:48:11;4.96;71.65
64652;HTU21D;51062;45.120;37.660;2023-02-22T14:50:49;4.95;71.76
64652;HTU21D;51062;45.120;37.660;2023-02-22T14:56:19;4.91;71.81
64652;HTU21D;51062;45.120;37.660;2023-02-22T14:59:12;4.90;71.84
64652;HTU21D;51062;45.120;37.660;2023-02-22T15:01:40;4.88;71.82
64652;HTU21D;51062;45.120;37.660;2023-02-22T15:06:41;4.88;71.86
64652;HTU21D;51062;45.120;37.660;2023-02-22T15:11:54;4.90;71.90
64652;HTU21D;51062;45.120;37.660;2023-02-22T15:14:38;4.89;71.90
64652;HTU21D;51062;45.120;37.660;2023-02-22T15:17:10;4.91;71.90
64652;HTU21D;51062;45.120;37.660;2023-02-22T15:19:40;4.91;71.90
64652;HTU21D;51062;45.120;37.660;2023-02-22T15:22:24;4.92;71.94
64652;HTU21D;51062;45.120;37.660;2023-02-22T15:24:59;4.94;71.94
64652;HTU21D;51062;45.120;37.660;2023-02-22T15:27:26;4.96;71.91
64652;HTU21D;51062;45.120;37.660;2023-02-22T15:30:00;4.98;71.89
64652;HTU21D;51062;45.120;37.660;2023-02-22T15:32:33;4.98;71.87
64652;HTU21D;51062;45.120;37.660;2023-02-22T15:35:17;4.98;71.91
64652;HTU21D;51062;45.120;37.660;2023-02-22T15:37:45;4.98;71.93
64652;HTU21D;51062;45.120;37.660;2023-02-22T15:40:19;5.00;72.00
64652;HTU21D;51062;45.120;37.660;2023-02-22T15:42:51;5.01;71.96
64652;HTU21D;51062;45.120;37.660;2023-02-22T15:45:24;5.02;71.98
64652;HTU21D;51062;45.120;37.660;2023-02-22T15:47:51;5.03;71.97
64652;HTU21D;51062;45.120;37.660;2023-02-22T15:50:28;5.05;72.02
64652;HTU21D;51062;45.120;37.660;2023-02-22T15:52:59;5.09;71.96
64652;HTU21D;51062;45.120;37.660;2023-02-22T15:55:46;5.10;71.93
64652;HTU21D;51062;45.120;37.660;2023-02-22T16:00:46;5.12;71.83
64652;HTU21D;51062;45.120;37.660;2023-02-22T16:03:18;5.13;71.85
64652;HTU21D;51062;45.120;37.660;2023-02-22T16:05:52;5.11;71.93
64652;HTU21D;51062;45.120;37.660;2023-02-22T16:08:26;5.10;71.95
64652;HTU21D;51062;45.120;37.660;2023-02-22T16:11:20;5.11;71.94
64652;HTU21D;51062;45.120;37.660;2023-02-22T16:13:53;5.07;71.93
64652;HTU21D;51062;45.120;37.660;2023-02-22T16:16:27;5.02;71.96
64652;HTU21D;51062;45.120;37.660;2023-02-22T16:19:27;4.96;72.09
64652;HTU21D;51062;45.120;37.660;2023-02-22T16:21:59;4.92;72.12
64652;HTU21D;51062;45.120;37.660;2023-02-22T16:24:32;4.91;72.14
64652;HTU21D;51062;45.120;37.660;2023-02-22T16:27:14;4.88;72.13
64652;HTU21D;51062;45.120;37.660;2023-02-22T16:29:41;4.86;72.09
64652;HTU21D;51062;45.120;37.660;2023-02-22T16:32:07;4.83;72.03
64652;HTU21D;51062;45.120;37.660;2023-02-22T16:34:33;4.84;72.01
64652;HTU21D;51062;45.120;37.660;2023-02-22T16:36:59;4.83;72.03
64652;HTU21D;51062;45.120;37.660;2023-02-22T16:39:30;4.83;72.07
64652;HTU21D;51062;45.120;37.660;2023-02-22T16:41:59;4.82;72.14
64652;HTU21D;51062;45.120;37.660;2023-02-22T16:44:27;4.83;72.22
64652;HTU21D;51062;45.120;37.660;2023-02-22T16:46:55;4.83;72.25
64652;HTU21D;51062;45.120;37.660;2023-02-22T16:49:22;4.83;72.17
64652;HTU21D;51062;45.120;37.660;2023-02-22T16:51:54;4.79;72.19
64652;HTU21D;51062;45.120;37.660;2023-02-22T16:54:50;4.76;72.31
64652;HTU21D;51062;45.120;37.660;2023-02-22T16:57:21;4.75;72.32
64652;HTU21D;51062;45.120;37.660;2023-02-22T16:59:48;4.73;72.35
64652;HTU21D;51062;45.120;37.660;2023-02-22T17:02:18;4.71;72.40
64652;HTU21D;51062;45.120;37.660;2023-02-22T17:04:44;4.69;72.48
64652;HTU21D;51062;45.120;37.660;2023-02-22T17:07:21;4.69;72.51
64652;HTU21D;51062;45.120;37.660;2023-02-22T17:09:56;4.72;72.53
64652;HTU21D;51062;45.120;37.660;2023-02-22T17:12:29;4.74;72.53
64652;HTU21D;51062;45.120;37.660;2023-02-22T17:14:57;4.76;72.53
64652;HTU21D;51062;45.120;37.660;2023-02-22T17:17:23;4.80;72.47
64652;HTU21D;51062;45.120;37.660;2023-02-22T17:19:51;4.81;72.43
64652;HTU21D;51062;45.120;37.660;2023-02-22T17:22:20;4.82;72.39
64652;HTU21D;51062;45.120;37.660;2023-02-22T17:24:47;4.82;72.36
64652;HTU21D;51062;45.120;37.660;2023-02-22T17:27:13;4.82;72.35
64652;HTU21D;51062;45.120;37.660;2023-02-22T17:29:39;4.80;72.40
64652;HTU21D;51062;45.120;37.660;2023-02-22T17:32:07;4.79;72.41
64652;HTU21D;51062;45.120;37.660;2023-02-22T17:34:33;4.80;72.44
64652;HTU21D;51062;45.120;37.660;2023-02-22T17:36:59;4.79;72.48
64652;HTU21D;51062;45.120;37.660;2023-02-22T17:39:25;4.78;72.51
64652;HTU21D;51062;45.120;37.660;2023-02-22T17:41:52;4.80;72.56